createdAt,value
2023-06-30T00:01:50.624Z,23.30
2023-06-30T00:04:29.438Z,23.30
2023-06-30T00:07:04.527Z,23.20
2023-06-30T00:09:39.876Z,23.10
2023-06-30T00:12:14.591Z,23.10
2023-06-30T00:14:48.370Z,23.10
2023-06-30T00:17:23.553Z,23.00
2023-06-30T00:19:59.183Z,23.00
2023-06-30T00:22:37.295Z,23.00
2023-06-30T00:25:15.165Z,23.00
2023-06-30T00:27:49.630Z,23.00
2023-06-30T00:30:25.054Z,22.90
2023-06-30T00:32:58.925Z,22.90
2023-06-30T00:35:35.489Z,22.90
2023-06-30T00:38:10.943Z,22.90
2023-06-30T00:40:45.584Z,22.80
2023-06-30T00:43:19.197Z,22.80
2023-06-30T00:45:52.883Z,22.80
2023-06-30T00:48:28.018Z,22.70
2023-06-30T00:51:02.628Z,22.70
2023-06-30T00:53:38.732Z,22.70
2023-06-30T00:56:12.965Z,22.60
2023-06-30T00:58:47.083Z,22.60
2023-06-30T01:01:33.994Z,22.60
2023-06-30T01:04:19.552Z,22.60
2023-06-30T01:07:05.197Z,22.60
2023-06-30T01:09:51.878Z,22.50
2023-06-30T01:12:27.377Z,22.50
2023-06-30T01:15:02.691Z,22.50
2023-06-30T01:17:41.401Z,22.20
2023-06-30T01:20:18.905Z,22.50
2023-06-30T01:23:01.427Z,22.50
2023-06-30T01:25:40.117Z,22.50
2023-06-30T01:28:15.931Z,22.50
2023-06-30T01:30:51.403Z,22.50
2023-06-30T01:33:27.523Z,22.50
2023-06-30T01:36:01.456Z,22.50
2023-06-30T01:38:34.928Z,22.50
2023-06-30T01:41:10.588Z,22.50
2023-06-30T01:43:50.391Z,22.50
2023-06-30T01:46:27.771Z,22.50
2023-06-30T01:49:02.000Z,22.50
2023-06-30T01:51:35.735Z,22.50
2023-06-30T01:54:10.050Z,22.40
2023-06-30T01:56:51.944Z,22.40
2023-06-30T01:59:27.505Z,22.40
2023-06-30T02:02:01.640Z,22.40
2023-06-30T02:04:35.526Z,22.40
2023-06-30T02:07:09.812Z,22.40
2023-06-30T02:09:48.426Z,22.40
2023-06-30T02:12:24.432Z,22.40
2023-06-30T02:14:58.900Z,22.30
2023-06-30T02:17:36.708Z,22.30
2023-06-30T02:20:12.386Z,22.20
2023-06-30T02:22:46.128Z,22.20
2023-06-30T02:25:19.796Z,22.20
2023-06-30T02:27:55.313Z,22.20
2023-06-30T02:30:29.573Z,22.10
2023-06-30T02:33:03.921Z,22.10
2023-06-30T02:35:37.943Z,22.10
2023-06-30T02:38:12.305Z,22.10
2023-06-30T02:40:46.210Z,22.00
2023-06-30T02:43:21.741Z,22.00
2023-06-30T02:45:55.581Z,22.00
2023-06-30T02:48:29.253Z,22.00
2023-06-30T02:51:04.626Z,22.00
2023-06-30T02:53:38.516Z,22.00
2023-06-30T02:56:12.545Z,21.90
2023-06-30T02:58:48.780Z,21.90
2023-06-30T03:01:24.274Z,21.90
2023-06-30T03:03:58.313Z,21.90
2023-06-30T03:06:32.117Z,21.90
2023-06-30T03:09:09.146Z,21.90
2023-06-30T03:11:43.441Z,21.90
2023-06-30T03:14:20.107Z,21.90
2023-06-30T03:16:53.943Z,21.80
2023-06-30T03:19:27.836Z,21.80
2023-06-30T03:22:02.080Z,21.80
2023-06-30T03:24:38.361Z,21.80
2023-06-30T03:27:12.015Z,21.70
2023-06-30T03:29:47.617Z,21.70
2023-06-30T03:32:21.492Z,21.70
2023-06-30T03:34:56.585Z,21.70
2023-06-30T03:37:30.499Z,21.70
2023-06-30T03:40:06.568Z,21.70
2023-06-30T03:42:40.457Z,21.70
2023-06-30T03:45:16.413Z,21.60
2023-06-30T03:47:50.528Z,21.60
2023-06-30T03:50:24.712Z,21.60
2023-06-30T03:52:58.443Z,21.60
2023-06-30T03:55:32.272Z,21.60
2023-06-30T03:58:06.575Z,21.50
2023-06-30T04:00:44.926Z,21.50
2023-06-30T04:03:18.563Z,21.50
2023-06-30T04:05:52.706Z,21.40
2023-06-30T04:08:26.620Z,21.40
2023-06-30T04:11:00.580Z,21.40
2023-06-30T04:13:34.237Z,21.40
2023-06-30T04:16:10.459Z,21.30
2023-06-30T04:18:48.466Z,21.30
2023-06-30T04:21:22.630Z,21.30
2023-06-30T04:23:56.675Z,21.20
2023-06-30T04:26:31.950Z,21.20
2023-06-30T04:29:06.185Z,21.20
2023-06-30T04:31:41.808Z,21.20
2023-06-30T04:34:15.759Z,21.20
2023-06-30T04:36:51.678Z,21.20
2023-06-30T04:39:25.384Z,21.20
2023-06-30T04:42:00.611Z,21.20
2023-06-30T04:44:34.317Z,21.20
2023-06-30T04:47:10.284Z,21.20
2023-06-30T04:49:44.435Z,21.20
2023-06-30T04:52:18.520Z,21.20
2023-06-30T04:54:52.630Z,21.20
2023-06-30T04:57:26.914Z,21.20
2023-06-30T05:00:02.177Z,21.20
2023-06-30T05:02:37.699Z,21.20
2023-06-30T05:05:11.568Z,21.20
2023-06-30T05:07:45.465Z,21.20
2023-06-30T05:10:19.265Z,21.20
2023-06-30T05:12:52.768Z,21.20
2023-06-30T05:15:29.959Z,21.20
2023-06-30T05:18:07.173Z,21.10
2023-06-30T05:20:41.057Z,21.10
2023-06-30T05:23:17.519Z,21.10
2023-06-30T05:25:51.113Z,21.00
2023-06-30T05:28:24.738Z,21.00
2023-06-30T05:30:58.443Z,21.00
2023-06-30T05:33:33.454Z,21.00
2023-06-30T05:36:07.864Z,21.00
2023-06-30T05:38:41.574Z,21.00
2023-06-30T05:41:15.695Z,21.00
2023-06-30T05:43:49.161Z,21.00
2023-06-30T05:46:22.653Z,21.00
2023-06-30T05:48:57.599Z,21.00
2023-06-30T05:51:31.542Z,20.90
2023-06-30T05:54:07.500Z,20.90
2023-06-30T05:56:41.393Z,20.90
2023-06-30T05:59:17.651Z,20.90
2023-06-30T06:01:51.802Z,20.90
2023-06-30T06:04:29.399Z,20.90
2023-06-30T06:07:06.501Z,20.90
2023-06-30T06:09:41.165Z,20.90
2023-06-30T06:12:14.906Z,20.90
2023-06-30T06:14:48.678Z,20.50
2023-06-30T06:17:22.700Z,20.80
2023-06-30T06:20:00.149Z,20.80
2023-06-30T06:22:34.826Z,20.80
2023-06-30T06:25:09.953Z,20.80
2023-06-30T06:27:43.742Z,20.80
2023-06-30T06:30:19.080Z,20.70
2023-06-30T06:32:54.132Z,20.70
2023-06-30T06:35:30.190Z,20.80
2023-06-30T06:38:04.807Z,20.70
2023-06-30T06:40:40.669Z,20.70
2023-06-30T06:43:15.007Z,20.70
2023-06-30T06:45:49.700Z,20.70
2023-06-30T06:48:26.589Z,20.80
2023-06-30T06:51:04.801Z,20.80
2023-06-30T06:53:39.678Z,20.80
2023-06-30T06:56:13.819Z,20.80
2023-06-30T06:58:49.098Z,20.80
2023-06-30T07:01:23.722Z,20.80
2023-06-30T07:03:57.552Z,20.80
2023-06-30T07:06:33.012Z,20.80
2023-06-30T07:09:06.962Z,20.80
2023-06-30T07:11:40.958Z,20.90
2023-06-30T07:14:15.013Z,20.90
2023-06-30T07:16:51.008Z,21.00
2023-06-30T07:19:25.142Z,21.00
2023-06-30T07:22:00.197Z,21.00
2023-06-30T07:24:42.967Z,21.00
2023-06-30T07:27:21.805Z,21.10
2023-06-30T07:29:56.738Z,21.10
2023-06-30T07:32:30.872Z,21.10
2023-06-30T07:35:06.010Z,21.20
2023-06-30T07:37:41.454Z,21.20
2023-06-30T07:40:23.738Z,21.00
2023-06-30T07:42:58.245Z,21.30
2023-06-30T07:45:32.401Z,21.30
2023-06-30T07:48:07.411Z,21.30
2023-06-30T07:50:47.459Z,21.20
2023-06-30T07:53:30.609Z,21.20
2023-06-30T07:56:05.139Z,21.20
2023-06-30T07:58:39.849Z,21.20
2023-06-30T08:01:13.915Z,21.30
2023-06-30T08:03:50.096Z,21.30
2023-06-30T08:06:26.537Z,21.40
2023-06-30T08:09:02.544Z,21.50
2023-06-30T08:11:36.542Z,21.50
2023-06-30T08:14:10.456Z,21.70
2023-06-30T08:16:44.482Z,21.70
2023-06-30T08:19:44.429Z,21.80
2023-06-30T08:22:14.879Z,21.90
2023-06-30T08:24:51.037Z,22.00
2023-06-30T08:27:25.123Z,22.10
2023-06-30T08:30:02.406Z,22.20
2023-06-30T08:32:36.312Z,22.20
2023-06-30T08:35:10.594Z,22.30
2023-06-30T08:37:45.266Z,22.40
2023-06-30T08:40:30.498Z,22.50
2023-06-30T08:43:13.543Z,22.60
2023-06-30T08:45:51.554Z,22.70
2023-06-30T08:48:27.109Z,22.70
2023-06-30T08:51:02.497Z,22.80
2023-06-30T08:53:37.354Z,22.80
2023-06-30T08:56:15.041Z,22.90
2023-06-30T08:58:48.702Z,23.00
2023-06-30T09:01:23.297Z,23.10
2023-06-30T09:04:00.100Z,23.20
2023-06-30T09:06:40.508Z,23.30
2023-06-30T09:09:24.072Z,23.40
2023-06-30T09:12:02.804Z,23.40
2023-06-30T09:14:41.519Z,23.50
2023-06-30T09:17:19.011Z,23.50
2023-06-30T09:19:53.917Z,23.50
2023-06-30T09:22:54.033Z,23.50
2023-06-30T09:25:45.061Z,23.50
2023-06-30T09:28:27.053Z,23.60
2023-06-30T09:31:03.482Z,23.70
2023-06-30T09:33:38.401Z,23.80
2023-06-30T09:36:20.221Z,23.80
2023-06-30T09:39:00.135Z,24.00
2023-06-30T09:41:34.143Z,23.80
2023-06-30T09:44:18.678Z,24.20
2023-06-30T09:46:54.400Z,24.20
2023-06-30T09:49:44.681Z,24.30
2023-06-30T09:52:26.794Z,24.30
2023-06-30T09:55:01.731Z,24.30
2023-06-30T09:57:41.290Z,24.40
2023-06-30T10:00:34.723Z,24.50
2023-06-30T10:03:12.397Z,24.50
2023-06-30T10:05:48.115Z,24.60
2023-06-30T10:08:25.229Z,24.70
2023-06-30T10:11:02.088Z,24.80
2023-06-30T10:13:37.001Z,24.90
2023-06-30T10:16:36.571Z,25.00
2023-06-30T10:19:13.926Z,25.10
2023-06-30T10:21:48.487Z,25.30
2023-06-30T10:24:29.235Z,25.30
2023-06-30T10:27:07.673Z,25.30
2023-06-30T10:29:47.431Z,25.30
2023-06-30T10:32:26.964Z,25.20
2023-06-30T10:35:16.316Z,25.20
2023-06-30T10:37:51.814Z,25.20
2023-06-30T10:40:28.258Z,25.10
2023-06-30T10:43:02.104Z,25.10
2023-06-30T10:45:38.112Z,25.00
2023-06-30T10:48:18.275Z,25.00
2023-06-30T10:50:56.068Z,25.00
2023-06-30T10:53:30.089Z,25.00
2023-06-30T10:56:06.139Z,25.10
2023-06-30T10:58:47.336Z,25.10
2023-06-30T11:01:21.710Z,25.10
2023-06-30T11:04:16.660Z,24.90
2023-06-30T11:07:07.328Z,25.20
2023-06-30T11:10:07.355Z,25.30
2023-06-30T11:12:56.327Z,25.40
2023-06-30T11:15:42.199Z,25.60
2023-06-30T11:18:22.611Z,25.60
2023-06-30T11:21:09.380Z,25.60
2023-06-30T11:23:45.166Z,25.60
2023-06-30T11:26:21.162Z,25.70
2023-06-30T11:28:55.502Z,25.70
2023-06-30T11:31:31.044Z,25.70
2023-06-30T11:34:06.490Z,25.70
2023-06-30T11:36:42.199Z,25.70
2023-06-30T11:39:18.205Z,25.70
2023-06-30T11:41:52.209Z,25.60
2023-06-30T11:44:26.115Z,25.60
2023-06-30T11:47:04.115Z,25.50
2023-06-30T11:49:42.425Z,25.50
2023-06-30T11:52:21.149Z,25.60
2023-06-30T11:54:54.748Z,25.60
2023-06-30T11:57:35.811Z,25.60
2023-06-30T12:00:13.223Z,25.60
2023-06-30T12:02:52.263Z,25.60
2023-06-30T12:05:28.675Z,25.60
2023-06-30T12:08:04.469Z,25.60
2023-06-30T12:10:43.562Z,25.60
2023-06-30T12:13:18.542Z,25.60
2023-06-30T12:15:59.523Z,25.80
2023-06-30T12:18:38.851Z,25.80
2023-06-30T12:21:15.020Z,25.90
2023-06-30T12:23:51.822Z,26.00
2023-06-30T12:26:29.444Z,26.10
2023-06-30T12:29:07.023Z,26.20
2023-06-30T12:31:42.882Z,26.20
2023-06-30T12:34:33.982Z,26.20
2023-06-30T12:37:08.237Z,26.20
2023-06-30T12:39:44.008Z,26.20
2023-06-30T12:42:19.514Z,26.20
2023-06-30T12:44:53.232Z,26.20
2023-06-30T12:47:29.472Z,26.20
2023-06-30T12:50:06.604Z,26.30
2023-06-30T12:52:41.319Z,26.30
2023-06-30T12:55:23.522Z,26.40
2023-06-30T12:57:58.884Z,26.40
2023-06-30T13:00:36.152Z,26.40
2023-06-30T13:03:14.419Z,26.50
2023-06-30T13:05:48.738Z,26.40
2023-06-30T13:08:25.651Z,26.50
2023-06-30T13:11:01.726Z,26.50
2023-06-30T13:13:39.581Z,26.40
2023-06-30T13:16:13.952Z,26.40
2023-06-30T13:18:48.414Z,26.40
2023-06-30T13:21:26.778Z,26.30
2023-06-30T13:24:01.903Z,26.30
2023-06-30T13:26:43.479Z,26.40
2023-06-30T13:29:26.628Z,26.40
2023-06-30T13:32:01.156Z,26.40
2023-06-30T13:34:34.850Z,26.50
2023-06-30T13:37:14.694Z,26.50
2023-06-30T13:39:48.752Z,26.50
2023-06-30T13:42:28.976Z,26.50
2023-06-30T13:45:05.142Z,26.60
2023-06-30T13:47:39.170Z,26.60
2023-06-30T13:50:14.184Z,26.60
2023-06-30T13:55:54.911Z,26.60
2023-06-30T13:58:33.161Z,26.50
2023-06-30T14:01:08.232Z,26.50
2023-06-30T14:03:43.812Z,26.50
2023-06-30T14:06:19.469Z,26.50
2023-06-30T14:08:58.809Z,26.50
2023-06-30T14:11:38.010Z,26.40
2023-06-30T14:14:17.798Z,26.40
2023-06-30T14:16:53.150Z,26.40
2023-06-30T14:19:35.455Z,26.40
2023-06-30T14:22:09.644Z,26.40
2023-06-30T14:24:49.122Z,26.30
2023-06-30T14:27:22.951Z,26.30
2023-06-30T14:29:58.721Z,26.10
2023-06-30T14:32:41.750Z,26.30
2023-06-30T14:35:15.465Z,26.10
2023-06-30T14:37:49.522Z,26.40
2023-06-30T14:40:25.344Z,26.40
2023-06-30T14:43:00.185Z,26.40
2023-06-30T14:45:38.300Z,26.50
2023-06-30T14:48:12.226Z,26.50
2023-06-30T14:50:47.063Z,26.40
2023-06-30T14:53:22.789Z,26.50
2023-06-30T14:55:58.041Z,26.40
2023-06-30T14:58:32.636Z,26.40
2023-06-30T15:01:15.485Z,26.30
2023-06-30T15:03:58.836Z,26.30
2023-06-30T15:06:40.514Z,26.30
2023-06-30T15:09:18.033Z,26.30
2023-06-30T15:11:58.935Z,26.20
2023-06-30T15:14:33.346Z,26.20
2023-06-30T15:17:11.822Z,26.20
2023-06-30T15:19:47.467Z,26.20
2023-06-30T15:22:23.009Z,26.20
2023-06-30T15:25:02.433Z,26.10
2023-06-30T15:27:42.179Z,26.10
2023-06-30T15:30:16.713Z,26.10
2023-06-30T15:32:56.859Z,26.10
2023-06-30T15:35:31.318Z,26.10
2023-06-30T15:38:09.464Z,26.10
2023-06-30T15:40:52.986Z,26.10
2023-06-30T15:43:30.033Z,26.10
2023-06-30T15:46:05.944Z,26.10
2023-06-30T15:48:59.920Z,26.00
2023-06-30T15:51:40.142Z,26.10
2023-06-30T15:54:18.422Z,26.00
2023-06-30T15:56:53.143Z,26.00
2023-06-30T15:59:37.265Z,26.00
2023-06-30T16:02:12.903Z,26.00
2023-06-30T16:04:50.940Z,26.00
2023-06-30T16:07:32.832Z,26.10
2023-06-30T16:10:14.884Z,26.10
2023-06-30T16:12:49.926Z,26.10
2023-06-30T16:15:27.203Z,26.10
2023-06-30T16:18:06.603Z,26.10
2023-06-30T16:20:42.862Z,26.10
2023-06-30T16:23:20.977Z,26.10
2023-06-30T16:26:03.746Z,26.10
2023-06-30T16:28:48.856Z,26.10
2023-06-30T16:31:42.924Z,26.30
2023-06-30T16:34:17.234Z,26.10
2023-06-30T16:36:55.767Z,26.10
2023-06-30T16:39:47.839Z,26.10
2023-06-30T16:42:32.779Z,25.90
2023-06-30T16:45:10.878Z,26.00
2023-06-30T16:47:47.464Z,26.00
2023-06-30T16:50:21.931Z,26.00
2023-06-30T16:52:57.652Z,25.90
2023-06-30T16:55:37.762Z,25.90
2023-06-30T16:58:13.861Z,25.90
2023-06-30T17:00:50.597Z,25.90
2023-06-30T17:03:25.343Z,25.80
2023-06-30T17:06:00.571Z,25.80
2023-06-30T17:08:38.879Z,25.80
2023-06-30T17:11:14.756Z,25.80
2023-06-30T17:13:48.997Z,25.80
2023-06-30T17:16:25.047Z,25.70
2023-06-30T17:19:00.541Z,25.70
2023-06-30T17:21:34.233Z,25.60
2023-06-30T17:24:11.183Z,25.60
2023-06-30T17:26:45.744Z,25.60
2023-06-30T17:29:21.303Z,25.50
2023-06-30T17:31:55.212Z,25.50
2023-06-30T17:34:30.082Z,25.50
2023-06-30T17:37:08.116Z,25.50
2023-06-30T17:39:45.869Z,25.20
2023-06-30T17:42:20.345Z,25.40
2023-06-30T17:44:54.449Z,25.40
2023-06-30T17:47:36.047Z,25.30
2023-06-30T17:50:14.816Z,25.30
2023-06-30T17:52:51.543Z,25.30
2023-06-30T17:55:32.414Z,25.30
2023-06-30T17:58:10.964Z,25.30
2023-06-30T18:00:45.331Z,25.20
2023-06-30T18:03:19.168Z,25.20
2023-06-30T18:05:53.050Z,25.20
2023-06-30T18:08:27.268Z,25.20
2023-06-30T18:11:09.464Z,25.20
2023-06-30T18:13:43.947Z,25.20
2023-06-30T18:16:18.250Z,25.20
2023-06-30T18:18:52.405Z,25.20
2023-06-30T18:21:26.872Z,25.20
2023-06-30T18:24:00.953Z,25.20
2023-06-30T18:26:39.594Z,25.20
2023-06-30T18:29:16.748Z,25.20
2023-06-30T18:31:50.989Z,25.10
2023-06-30T18:34:29.538Z,25.10
2023-06-30T18:37:09.756Z,25.10
2023-06-30T18:39:44.275Z,25.10
2023-06-30T18:42:19.615Z,25.10
2023-06-30T18:44:56.382Z,25.20
2023-06-30T18:47:33.091Z,25.00
2023-06-30T18:50:08.525Z,25.00
2023-06-30T18:52:42.702Z,24.90
2023-06-30T18:55:16.631Z,24.90
2023-06-30T18:57:52.370Z,24.90
2023-06-30T19:00:27.211Z,24.90
2023-06-30T19:03:03.833Z,24.80
2023-06-30T19:05:45.993Z,24.80
2023-06-30T19:08:32.921Z,24.70
2023-06-30T19:11:15.429Z,24.70
2023-06-30T19:13:56.178Z,24.70
2023-06-30T19:16:31.836Z,24.70
2023-06-30T19:19:10.524Z,24.60
2023-06-30T19:21:54.907Z,24.40
2023-06-30T19:24:33.436Z,24.60
2023-06-30T19:27:08.737Z,24.60
2023-06-30T19:29:44.649Z,24.50
2023-06-30T19:32:19.261Z,24.50
2023-06-30T19:35:00.321Z,24.50
2023-06-30T19:37:37.121Z,24.50
2023-06-30T19:40:16.303Z,24.40
2023-06-30T19:42:52.397Z,24.40
2023-06-30T19:45:29.268Z,24.40
2023-06-30T19:48:04.865Z,24.30
2023-06-30T19:50:41.081Z,24.30
2023-06-30T19:53:18.120Z,24.30
2023-06-30T19:55:56.379Z,24.30
2023-06-30T19:58:33.160Z,24.20
2023-06-30T20:01:18.774Z,24.20
2023-06-30T20:03:55.577Z,24.20
2023-06-30T20:06:51.310Z,24.10
2023-06-30T20:09:26.802Z,24.10
2023-06-30T20:12:03.371Z,24.10
2023-06-30T20:15:01.661Z,24.00
2023-06-30T20:17:38.601Z,24.00
2023-06-30T20:20:15.090Z,23.90
2023-06-30T20:22:49.218Z,23.90
2023-06-30T20:25:24.940Z,23.80
2023-06-30T20:28:00.456Z,23.80
2023-06-30T20:30:38.306Z,23.80
2023-06-30T20:33:16.094Z,23.70
2023-06-30T20:35:57.653Z,23.70
2023-06-30T20:38:34.756Z,23.70
2023-06-30T20:41:08.927Z,23.70
2023-06-30T20:43:42.597Z,23.60
2023-06-30T20:46:19.123Z,23.50
2023-06-30T20:48:54.475Z,23.50
2023-06-30T20:51:29.502Z,23.50
2023-06-30T20:54:03.506Z,23.40
2023-06-30T20:56:39.176Z,23.40
2023-06-30T20:59:15.502Z,23.40
2023-06-30T21:01:52.306Z,23.40
2023-06-30T21:04:35.979Z,23.30
2023-06-30T21:07:19.778Z,23.30
2023-06-30T21:10:11.393Z,23.00
2023-06-30T21:12:57.371Z,23.20
2023-06-30T21:15:36.694Z,23.20
2023-06-30T21:18:14.811Z,23.20
2023-06-30T21:20:52.415Z,23.10
2023-06-30T21:23:26.431Z,23.10
2023-06-30T21:26:03.696Z,23.00
2023-06-30T21:28:37.887Z,23.00
2023-06-30T21:31:12.178Z,23.00
2023-06-30T21:33:45.956Z,23.00
2023-06-30T21:36:21.402Z,22.90
2023-06-30T21:38:57.081Z,22.90
2023-06-30T21:41:31.880Z,23.00
2023-06-30T21:44:06.307Z,22.80
2023-06-30T21:46:43.921Z,22.80
2023-06-30T21:49:18.604Z,22.80
2023-06-30T21:51:54.806Z,22.70
2023-06-30T21:54:41.132Z,22.70
2023-06-30T21:57:22.563Z,22.70
2023-06-30T21:59:56.784Z,22.70
2023-06-30T22:02:31.305Z,22.60
2023-06-30T22:05:06.088Z,22.60
2023-06-30T22:07:41.774Z,22.60
2023-06-30T22:10:17.238Z,22.50
2023-06-30T22:12:52.772Z,22.50
2023-06-30T22:15:26.719Z,22.50
2023-06-30T22:18:01.545Z,22.40
2023-06-30T22:20:35.886Z,22.40
2023-06-30T22:23:12.630Z,22.40
2023-06-30T22:25:48.306Z,22.40
2023-06-30T22:28:23.689Z,22.30
2023-06-30T22:30:57.826Z,22.30
2023-06-30T22:33:36.002Z,22.30
2023-06-30T22:36:15.727Z,22.30
2023-06-30T22:38:52.220Z,22.20
2023-06-30T22:41:29.311Z,22.30
2023-06-30T22:44:08.687Z,22.20
2023-06-30T22:46:42.583Z,22.20
2023-06-30T22:49:17.004Z,22.20
2023-06-30T22:51:52.306Z,22.20
2023-06-30T22:54:31.871Z,21.80
2023-06-30T22:57:06.699Z,22.10
2023-06-30T22:59:41.419Z,22.30
2023-06-30T23:02:16.164Z,22.10
2023-06-30T23:04:51.210Z,22.10
2023-06-30T23:07:25.246Z,22.00
2023-06-30T23:10:01.348Z,22.00
2023-06-30T23:12:35.534Z,22.00
2023-06-30T23:15:10.596Z,22.00
2023-06-30T23:17:54.359Z,22.00
2023-06-30T23:20:28.271Z,21.90
2023-06-30T23:23:32.439Z,21.90
2023-06-30T23:26:23.290Z,21.60
2023-06-30T23:29:25.697Z,21.90
2023-06-30T23:32:15.496Z,21.80
2023-06-30T23:35:00.800Z,21.80
2023-06-30T23:37:37.253Z,21.80
2023-06-30T23:40:12.419Z,21.80
2023-06-30T23:42:47.944Z,21.80
2023-06-30T23:45:34.656Z,21.80
2023-06-30T23:48:19.758Z,21.70
2023-06-30T23:51:24.499Z,21.70
2023-06-30T23:53:58.959Z,21.70
2023-06-30T23:56:33.092Z,21.70
2023-06-30T23:59:09.664Z,21.50
